Hauptseite
METAR-TAF:

METAR-TAF

Flughäfen :

Tschita, Russland

Flughafen Kadala

Breite: 52-05N, Länge: 113-29E, Höhe: 685 m

Beobachtung

Neuester Wetterbericht von vor 32 Minuten, um 13:30 UTC
Wind 6 kt aus Nord/Nordost
Temperatur -5°C
Luftfeuchtigkeit 58%
Luftdruck 1023 hPa
Sichtweite 10 km oder mehr

METAR: UIAA 201330Z 02003MPS 9999 NSC M05/M12 Q1023 R29/CLRD70 NOSIG RMK QFE709/0945

Zeit: 23:02 (14:02 UTC)

Prognose

Neuester Wetterbericht von vor 3 Stunden und 2 Minuten, um 11:00 UTC
Gültige Prognose vom 20 um 12 UTC bis 21 um 12 UTC
Wind 6 kt aus Nord/Nordost
Sichtweite 10 km oder mehr
Zeitweise
vom 21 um 02 UTC bis 21 um 12 UTC
Wind 10 kt aus Süd

TAF: UIAA 201100Z 2012/2112 03003MPS 9999 NSC TEMPO 2102/2112 18005MPS

Wetterbeobachtungen und Prognosen von mehr als 4000 Flughäfen (METAR und TAF Bericht).

Die verfügbaren Stationen werden durch gelbe und rote Markierungen auf der Karte dargestellt.

Führen Sie die Maus auf sie, um den Namen der Station zu sehen.

Darauf klicken, um die Beobachtung von Wetterbeobachtungen und Prognosen zu sehen.

Um die Karte zu ändern : klicken Sie auf den grünen Tasten mit einem schwarzen Kreuz Zum Vergrößern, auf den grünen Button mit einem Gedankenstrich zu verkleinern, oder auf die grünen Pfeile für benachbarte Karten.


METAR-TAF: